Time;durP1;ratioP1;P1;durP2;ratioP2;P2;SDS_P1;SDS_P2;PMS_P1;PMS_P2;Temp;Humidity;BMP_temperature;BMP_pressure;BME280_temperature;BME280_humidity;BME280_pressure;Samples;Min_cycle;Max_cycle;Signal;HPM_P1;HPM_P2
2023/06/13 00:01:39;;;;;;;6.47;5.00;;;;;;;;;;5111913;28;20045;-67
2023/06/13 00:04:04;;;;;;;6.72;5.20;;;;;;;;;;5113421;28;20034;-67
2023/06/13 00:06:30;;;;;;;7.03;5.75;;;;;;;;;;5113823;28;20031;-67
2023/06/13 00:08:57;;;;;;;7.90;5.65;;;;;;;;;;5112370;28;20363;-67
2023/06/13 00:11:22;;;;;;;7.65;5.18;;;;;;;;;;5113528;28;20024;-67
2023/06/13 00:13:47;;;;;;;7.30;5.70;;;;;;;;;;5113109;28;20038;-67
2023/06/13 00:16:14;;;;;;;7.97;5.23;;;;;;;;;;5113562;28;20523;-67
2023/06/13 00:18:39;;;;;;;7.63;5.82;;;;;;;;;;5113121;28;20271;-67
2023/06/13 00:21:06;;;;;;;11.63;5.82;;;;;;;;;;5113234;28;20020;-67
2023/06/13 00:23:31;;;;;;;8.32;6.00;;;;;;;;;;5113070;28;20445;-67
2023/06/13 00:25:56;;;;;;;10.88;5.38;;;;;;;;;;5106782;28;20048;-67
2023/06/13 00:28:22;;;;;;;9.38;5.65;;;;;;;;;;5111803;28;20059;-67
2023/06/13 00:30:47;;;;;;;9.30;5.53;;;;;;;;;;5100963;28;20026;-67
2023/06/13 00:33:16;;;;;;;9.13;5.50;;;;;;;;;;5098466;28;20038;-67
2023/06/13 00:35:41;;;;;;;7.45;5.03;;;;;;;;;;5112076;28;20031;-67
2023/06/13 00:38:07;;;;;;;8.18;5.70;;;;;;;;;;5101812;28;20096;-67
2023/06/13 00:40:32;;;;;;;7.60;4.82;;;;;;;;;;5112147;28;20020;-67
2023/06/13 00:42:57;;;;;;;19.77;5.97;;;;;;;;;;5113171;28;20028;-67
2023/06/13 00:45:24;;;;;;;10.48;5.82;;;;;;;;;;5112359;28;20023;-67
2023/06/13 00:47:55;;;;;;;8.82;5.82;;;;;;;;;;5093620;28;20085;-67
2023/06/13 00:50:21;;;;;;;10.32;6.00;;;;;;;;;;5092855;28;20046;-67
2023/06/13 00:52:47;;;;;;;8.18;5.05;;;;;;;;;;5093550;28;20024;-67
2023/06/13 00:55:14;;;;;;;10.80;6.28;;;;;;;;;;5092999;28;20030;-67
2023/06/13 00:57:39;;;;;;;12.10;5.78;;;;;;;;;;5109867;28;20047;-67
2023/06/13 01:00:05;;;;;;;6.50;5.72;;;;;;;;;;5112146;28;20124;-67
2023/06/13 01:02:33;;;;;;;7.15;5.50;;;;;;;;;;5111826;28;20114;-67
2023/06/13 01:05:00;;;;;;;10.80;5.60;;;;;;;;;;5110647;28;20496;-67
2023/06/13 01:07:29;;;;;;;12.35;5.80;;;;;;;;;;5110700;28;20031;-67
2023/06/13 01:09:55;;;;;;;13.25;5.03;;;;;;;;;;5110686;28;20031;-67
2023/06/13 01:12:32;;;;;;;8.60;5.05;;;;;;;;;;5109525;28;20023;-67
2023/06/13 01:14:58;;;;;;;9.73;5.03;;;;;;;;;;5098886;28;20050;-67
2023/06/13 01:17:27;;;;;;;9.97;5.50;;;;;;;;;;5098696;28;20024;-67
2023/06/13 01:19:53;;;;;;;10.30;5.97;;;;;;;;;;5111946;28;20028;-67
2023/06/13 01:22:22;;;;;;;6.03;4.45;;;;;;;;;;5102863;28;20023;-67
2023/06/13 01:25:09;;;;;;;7.53;4.97;;;;;;;;;;5107296;28;20032;-66
2023/06/13 01:27:37;;;;;;;8.38;5.10;;;;;;;;;;5100611;28;20028;-67
2023/06/13 01:30:03;;;;;;;8.60;5.75;;;;;;;;;;5095444;28;20102;-67
2023/06/13 01:32:29;;;;;;;10.80;5.40;;;;;;;;;;5094283;28;20020;-67
2023/06/13 01:34:54;;;;;;;8.00;5.10;;;;;;;;;;5098935;28;20080;-67
2023/06/13 01:37:20;;;;;;;7.57;4.85;;;;;;;;;;5101590;28;20111;-67
2023/06/13 01:39:45;;;;;;;12.13;5.72;;;;;;;;;;5106920;28;20110;-67
2023/06/13 01:42:10;;;;;;;10.37;5.63;;;;;;;;;;5104203;28;20657;-67
2023/06/13 01:44:36;;;;;;;7.90;5.40;;;;;;;;;;5111554;28;20729;-67
2023/06/13 01:47:05;;;;;;;7.85;5.38;;;;;;;;;;5100051;28;20302;-67
2023/06/13 01:49:49;;;;;;;13.15;6.22;;;;;;;;;;5096883;28;20031;-67
2023/06/13 01:52:44;;;;;;;9.63;6.13;;;;;;;;;;5109428;28;20031;-67
2023/06/13 01:55:13;;;;;;;15.95;5.53;;;;;;;;;;5083134;28;20031;-67
2023/06/13 01:57:40;;;;;;;8.55;5.20;;;;;;;;;;5102588;28;20032;-67
2023/06/13 02:00:06;;;;;;;6.22;5.30;;;;;;;;;;5110607;28;20034;-67
2023/06/13 02:02:32;;;;;;;11.50;5.30;;;;;;;;;;5111177;28;20028;-67
2023/06/13 02:04:57;;;;;;;10.05;4.88;;;;;;;;;;5104012;28;20032;-67
2023/06/13 02:07:24;;;;;;;6.60;4.90;;;;;;;;;;5108455;28;20035;-67
2023/06/13 02:09:50;;;;;;;12.60;5.05;;;;;;;;;;5103718;28;20475;-67
2023/06/13 02:12:15;;;;;;;10.43;5.90;;;;;;;;;;5098429;28;20035;-67
2023/06/13 02:14:40;;;;;;;6.32;4.45;;;;;;;;;;5091943;28;20759;-67
2023/06/13 02:17:06;;;;;;;11.30;5.25;;;;;;;;;;5091724;28;20113;-67
2023/06/13 02:19:31;;;;;;;11.50;4.78;;;;;;;;;;5090991;28;20024;-67
2023/06/13 02:21:57;;;;;;;5.88;4.10;;;;;;;;;;5091874;28;20065;-67
2023/06/13 02:24:22;;;;;;;6.82;4.75;;;;;;;;;;5092702;28;20024;-67
2023/06/13 02:26:47;;;;;;;8.50;5.90;;;;;;;;;;5102292;28;20072;-67
2023/06/13 02:29:13;;;;;;;11.65;5.72;;;;;;;;;;5094387;28;20340;-67
2023/06/13 02:31:40;;;;;;;16.02;5.22;;;;;;;;;;5104316;28;20034;-67
2023/06/13 02:34:05;;;;;;;8.20;5.05;;;;;;;;;;5091278;28;20024;-67
2023/06/13 02:36:31;;;;;;;9.05;5.82;;;;;;;;;;5090941;28;20027;-67
2023/06/13 02:38:56;;;;;;;8.97;5.33;;;;;;;;;;5091130;28;20448;-67
2023/06/13 02:41:21;;;;;;;20.38;6.05;;;;;;;;;;5096189;28;20277;-67
2023/06/13 02:43:46;;;;;;;8.55;4.60;;;;;;;;;;5111005;28;20068;-67
2023/06/13 02:46:12;;;;;;;6.95;4.75;;;;;;;;;;5108633;28;20047;-67
2023/06/13 02:48:37;;;;;;;11.73;5.40;;;;;;;;;;5110402;28;20042;-67
2023/06/13 02:51:02;;;;;;;7.30;5.15;;;;;;;;;;5105138;28;20277;-67
2023/06/13 02:53:28;;;;;;;11.82;5.28;;;;;;;;;;5102360;28;20024;-66
2023/06/13 02:55:54;;;;;;;8.53;4.53;;;;;;;;;;5109623;28;20020;-67
2023/06/13 02:58:20;;;;;;;7.18;4.97;;;;;;;;;;5110422;28;20266;-67
2023/06/13 03:00:45;;;;;;;9.43;5.53;;;;;;;;;;5109841;28;20016;-67
2023/06/13 03:03:11;;;;;;;9.20;4.90;;;;;;;;;;5100723;28;20467;-67
2023/06/13 03:05:36;;;;;;;10.18;5.38;;;;;;;;;;5105662;28;20024;-67
2023/06/13 03:08:02;;;;;;;9.60;5.63;;;;;;;;;;5110382;28;20071;-66
2023/06/13 03:10:27;;;;;;;8.93;5.07;;;;;;;;;;5110129;28;20028;-67
2023/06/13 03:12:52;;;;;;;8.73;4.72;;;;;;;;;;5092815;28;20020;-67
2023/06/13 03:15:18;;;;;;;7.70;5.25;;;;;;;;;;5110133;28;20470;-67
2023/06/13 03:17:44;;;;;;;6.68;4.38;;;;;;;;;;5111195;28;20034;-67
2023/06/13 03:20:10;;;;;;;6.25;4.63;;;;;;;;;;5109540;28;20039;-66
2023/06/13 03:22:35;;;;;;;8.95;4.90;;;;;;;;;;5109677;28;20363;-66
2023/06/13 03:25:06;;;;;;;8.25;5.32;;;;;;;;;;5108340;28;20470;-67
2023/06/13 03:27:32;;;;;;;11.13;6.03;;;;;;;;;;5108877;28;20085;-67
2023/06/13 03:29:57;;;;;;;7.68;5.00;;;;;;;;;;5094458;28;20036;-67
2023/06/13 03:32:22;;;;;;;7.32;4.70;;;;;;;;;;5110732;28;20020;-66
2023/06/13 03:34:48;;;;;;;8.48;4.38;;;;;;;;;;5109929;28;20441;-67
2023/06/13 03:37:14;;;;;;;7.63;5.05;;;;;;;;;;5109719;28;20035;-66
2023/06/13 03:39:39;;;;;;;15.30;4.75;;;;;;;;;;5109400;28;20023;-66
2023/06/13 03:42:04;;;;;;;11.45;4.30;;;;;;;;;;5101216;28;20020;-67
2023/06/13 03:44:30;;;;;;;8.57;4.75;;;;;;;;;;5094326;28;20104;-67
2023/06/13 03:46:56;;;;;;;7.10;4.20;;;;;;;;;;5107659;28;20023;-66
2023/06/13 03:49:22;;;;;;;7.68;4.70;;;;;;;;;;5112520;28;20480;-67
2023/06/13 03:51:47;;;;;;;10.40;4.45;;;;;;;;;;5112816;28;20466;-67
2023/06/13 03:54:12;;;;;;;7.15;4.25;;;;;;;;;;5112566;28;20024;-67
2023/06/13 03:56:37;;;;;;;7.80;4.63;;;;;;;;;;5114023;28;20343;-67
2023/06/13 03:59:03;;;;;;;5.28;4.20;;;;;;;;;;5111509;28;20266;-67
2023/06/13 04:01:28;;;;;;;11.83;5.03;;;;;;;;;;5103359;28;20024;-67
2023/06/13 04:03:54;;;;;;;6.25;4.18;;;;;;;;;;5100251;28;20270;-68
2023/06/13 04:06:19;;;;;;;7.70;4.35;;;;;;;;;;5113563;28;20385;-67
2023/06/13 04:08:44;;;;;;;7.90;4.67;;;;;;;;;;5112675;28;20035;-66
2023/06/13 04:11:09;;;;;;;7.07;4.77;;;;;;;;;;5081053;28;20285;-66
2023/06/13 04:13:34;;;;;;;6.13;4.60;;;;;;;;;;5100178;28;20366;-66
2023/06/13 04:16:00;;;;;;;6.22;4.60;;;;;;;;;;5093955;28;20024;-66
2023/06/13 04:18:26;;;;;;;10.05;4.40;;;;;;;;;;5093438;28;20036;-67
2023/06/13 04:20:52;;;;;;;11.82;4.72;;;;;;;;;;5094379;28;20395;-66
2023/06/13 04:23:18;;;;;;;4.88;3.80;;;;;;;;;;5094505;28;20499;-67
2023/06/13 04:25:43;;;;;;;5.63;4.18;;;;;;;;;;5099775;28;20110;-66
2023/06/13 04:28:08;;;;;;;7.57;4.95;;;;;;;;;;5106130;28;20112;-67
2023/06/13 04:30:34;;;;;;;7.82;4.43;;;;;;;;;;5109463;28;20054;-67
2023/06/13 04:33:05;;;;;;;7.90;4.47;;;;;;;;;;5105409;28;20095;-66
2023/06/13 04:35:37;;;;;;;6.40;4.40;;;;;;;;;;5100548;28;20285;-67
2023/06/13 04:38:04;;;;;;;8.80;5.15;;;;;;;;;;5108754;28;20034;-66
2023/06/13 04:40:31;;;;;;;9.45;4.63;;;;;;;;;;5108862;28;20114;-66
2023/06/13 04:42:58;;;;;;;5.95;3.97;;;;;;;;;;5107795;28;20032;-67
2023/06/13 04:45:24;;;;;;;11.13;4.82;;;;;;;;;;5104889;28;20033;-67
2023/06/13 04:47:51;;;;;;;8.77;4.35;;;;;;;;;;5112297;28;20024;-67
2023/06/13 04:50:19;;;;;;;6.50;4.22;;;;;;;;;;5112259;28;20024;-66
2023/06/13 04:52:45;;;;;;;10.40;4.97;;;;;;;;;;5112659;28;20519;-66
2023/06/13 04:55:10;;;;;;;10.82;5.13;;;;;;;;;;5110731;28;20034;-66
2023/06/13 04:57:36;;;;;;;8.93;5.07;;;;;;;;;;5111640;28;20027;-67
2023/06/13 05:00:06;;;;;;;9.18;5.20;;;;;;;;;;5112280;28;20030;-66
2023/06/13 05:02:34;;;;;;;6.95;4.53;;;;;;;;;;5104076;28;20035;-67
2023/06/13 05:05:00;;;;;;;7.35;4.78;;;;;;;;;;5102986;28;20062;-66
2023/06/13 05:07:28;;;;;;;7.90;4.20;;;;;;;;;;5107205;28;20059;-67
2023/06/13 05:09:53;;;;;;;12.18;4.53;;;;;;;;;;5109562;28;20019;-66
2023/06/13 05:12:19;;;;;;;7.97;4.27;;;;;;;;;;5109670;28;20068;-66
2023/06/13 05:14:45;;;;;;;7.45;4.85;;;;;;;;;;5109837;28;20285;-66
2023/06/13 05:17:12;;;;;;;6.57;4.43;;;;;;;;;;5104516;28;20031;-67
2023/06/13 05:19:37;;;;;;;22.67;5.13;;;;;;;;;;5105798;28;20037;-66
2023/06/13 05:22:05;;;;;;;8.63;4.32;;;;;;;;;;5108767;28;20028;-67
2023/06/13 05:24:30;;;;;;;6.82;4.32;;;;;;;;;;5109795;28;20557;-66
2023/06/13 05:26:56;;;;;;;7.37;4.33;;;;;;;;;;5105006;28;20102;-66
2023/06/13 05:29:21;;;;;;;8.57;4.93;;;;;;;;;;5106324;28;20740;-66
2023/06/13 05:31:46;;;;;;;11.27;4.57;;;;;;;;;;5096706;28;20469;-66
2023/06/13 05:34:12;;;;;;;8.60;4.30;;;;;;;;;;5102565;28;20636;-67
2023/06/13 05:36:37;;;;;;;7.13;4.60;;;;;;;;;;5098126;28;20348;-66
2023/06/13 05:39:02;;;;;;;6.07;4.05;;;;;;;;;;5093753;28;20290;-66
2023/06/13 05:41:27;;;;;;;7.35;5.13;;;;;;;;;;5098790;28;20027;-66
2023/06/13 05:43:53;;;;;;;7.93;4.90;;;;;;;;;;5112035;28;20081;-66
2023/06/13 05:46:18;;;;;;;7.77;4.40;;;;;;;;;;5098637;28;20281;-66
2023/06/13 05:48:43;;;;;;;8.45;4.18;;;;;;;;;;5112254;28;20771;-66
2023/06/13 05:51:08;;;;;;;9.77;4.55;;;;;;;;;;5109592;28;20057;-67
2023/06/13 05:53:34;;;;;;;7.88;4.25;;;;;;;;;;5112015;28;20398;-66
2023/06/13 05:55:59;;;;;;;6.63;4.85;;;;;;;;;;5104856;28;20056;-66
2023/06/13 05:58:24;;;;;;;6.63;4.32;;;;;;;;;;5091797;28;20031;-66
2023/06/13 06:00:52;;;;;;;7.80;4.20;;;;;;;;;;5100984;28;20533;-66
2023/06/13 06:03:17;;;;;;;9.02;4.60;;;;;;;;;;5104288;28;20016;-66
2023/06/13 06:05:42;;;;;;;6.75;4.68;;;;;;;;;;5108221;28;20016;-66
2023/06/13 06:08:07;;;;;;;8.13;5.23;;;;;;;;;;5100935;28;20120;-66
2023/06/13 06:10:33;;;;;;;9.93;4.28;;;;;;;;;;5097743;28;20289;-66
2023/06/13 06:12:58;;;;;;;6.78;3.95;;;;;;;;;;5110929;28;20084;-67
2023/06/13 06:15:24;;;;;;;6.50;4.50;;;;;;;;;;5109569;28;20675;-67
2023/06/13 06:17:50;;;;;;;8.10;5.05;;;;;;;;;;5110386;28;20269;-67
2023/06/13 06:20:16;;;;;;;7.32;5.25;;;;;;;;;;5109763;28;20028;-67
2023/06/13 06:22:41;;;;;;;8.63;5.38;;;;;;;;;;5111019;28;20020;-67
2023/06/13 06:25:08;;;;;;;10.02;5.50;;;;;;;;;;5110066;28;20020;-67
2023/06/13 06:27:34;;;;;;;7.78;4.65;;;;;;;;;;5110714;28;20042;-66
2023/06/13 06:29:59;;;;;;;5.97;4.05;;;;;;;;;;5109828;28;20019;-65
2023/06/13 06:32:24;;;;;;;7.43;4.57;;;;;;;;;;5101524;28;20042;-66
2023/06/13 06:34:50;;;;;;;13.68;5.32;;;;;;;;;;5111130;28;20027;-66
2023/06/13 06:37:15;;;;;;;8.73;4.38;;;;;;;;;;5110897;28;20020;-66
2023/06/13 06:39:41;;;;;;;10.70;5.03;;;;;;;;;;5109736;28;20039;-67
2023/06/13 06:42:06;;;;;;;10.45;5.55;;;;;;;;;;5100361;28;20020;-66
2023/06/13 06:44:31;;;;;;;7.60;4.25;;;;;;;;;;5093696;28;20110;-66
2023/06/13 06:46:56;;;;;;;10.90;4.90;;;;;;;;;;5111432;28;20466;-66
2023/06/13 06:49:22;;;;;;;8.98;5.25;;;;;;;;;;5107865;28;20266;-66
2023/06/13 06:51:50;;;;;;;7.93;4.88;;;;;;;;;;5090718;28;20099;-66
2023/06/13 06:54:15;;;;;;;13.38;4.65;;;;;;;;;;5090687;28;20040;-67
2023/06/13 06:56:43;;;;;;;7.65;4.95;;;;;;;;;;5091841;28;20047;-66
2023/06/13 06:59:09;;;;;;;7.72;4.47;;;;;;;;;;5090979;28;20055;-66
2023/06/13 07:01:35;;;;;;;8.90;5.63;;;;;;;;;;5091123;28;20384;-66
2023/06/13 07:04:02;;;;;;;8.35;5.47;;;;;;;;;;5091718;28;20045;-67
2023/06/13 07:06:27;;;;;;;9.93;4.82;;;;;;;;;;5099279;28;20096;-67
2023/06/13 07:08:53;;;;;;;6.53;4.80;;;;;;;;;;5099260;28;20061;-66
2023/06/13 07:11:18;;;;;;;14.67;5.40;;;;;;;;;;5102667;28;20028;-65
2023/06/13 07:13:43;;;;;;;6.57;4.47;;;;;;;;;;5093470;28;20893;-65
2023/06/13 07:16:08;;;;;;;8.13;4.63;;;;;;;;;;5092253;28;20285;-65
2023/06/13 07:18:34;;;;;;;11.77;5.13;;;;;;;;;;5102779;28;20286;-66
2023/06/13 07:20:59;;;;;;;8.68;5.45;;;;;;;;;;5110345;28;20360;-66
2023/06/13 07:23:27;;;;;;;11.53;5.17;;;;;;;;;;5105390;28;20032;-66
2023/06/13 07:25:52;;;;;;;7.50;5.10;;;;;;;;;;5080768;28;21239;-66
2023/06/13 07:28:17;;;;;;;6.40;4.77;;;;;;;;;;5068194;28;20022;-65
2023/06/13 07:30:43;;;;;;;12.50;5.80;;;;;;;;;;5057947;28;21131;-66
2023/06/13 07:33:08;;;;;;;7.63;4.67;;;;;;;;;;5063774;28;21107;-66
2023/06/13 07:35:34;;;;;;;9.02;4.88;;;;;;;;;;5070065;28;20273;-65
2023/06/13 07:37:59;;;;;;;14.13;4.93;;;;;;;;;;5068875;28;20031;-65
2023/06/13 07:40:24;;;;;;;7.75;4.75;;;;;;;;;;5064490;28;20277;-65
2023/06/13 07:42:50;;;;;;;8.50;5.10;;;;;;;;;;5064501;28;20024;-66
2023/06/13 07:45:15;;;;;;;8.30;5.18;;;;;;;;;;5070123;28;20085;-66
2023/06/13 07:47:41;;;;;;;8.80;5.30;;;;;;;;;;5062566;28;20083;-66
2023/06/13 07:50:06;;;;;;;9.00;5.15;;;;;;;;;;5050173;28;20058;-66
2023/06/13 07:52:32;;;;;;;14.18;5.55;;;;;;;;;;5051281;28;20933;-67
2023/06/13 07:54:57;;;;;;;8.13;4.43;;;;;;;;;;5062290;28;20831;-66
2023/06/13 07:57:22;;;;;;;11.70;5.13;;;;;;;;;;5094751;28;20024;-66
2023/06/13 07:59:48;;;;;;;8.07;5.35;;;;;;;;;;5100216;28;20043;-66
2023/06/13 08:02:13;;;;;;;6.67;4.97;;;;;;;;;;5097016;28;20455;-67
2023/06/13 08:04:38;;;;;;;7.07;4.60;;;;;;;;;;5100641;28;20253;-66
2023/06/13 08:07:04;;;;;;;9.53;4.70;;;;;;;;;;5112029;28;20287;-65
2023/06/13 08:09:29;;;;;;;7.57;4.70;;;;;;;;;;5112802;28;20358;-65
2023/06/13 08:11:56;;;;;;;9.43;5.25;;;;;;;;;;5112237;28;20024;-65
2023/06/13 08:14:21;;;;;;;9.68;5.47;;;;;;;;;;5110110;28;20055;-66
2023/06/13 08:16:47;;;;;;;10.30;4.82;;;;;;;;;;5105607;28;20550;-66
2023/06/13 08:19:12;;;;;;;7.80;5.18;;;;;;;;;;5110287;28;20023;-65
2023/06/13 08:21:38;;;;;;;12.10;5.13;;;;;;;;;;5107831;28;20474;-66
2023/06/13 08:24:03;;;;;;;9.23;5.20;;;;;;;;;;5110458;28;20601;-66
2023/06/13 08:26:32;;;;;;;7.30;5.07;;;;;;;;;;5097189;28;20071;-66
2023/06/13 08:28:58;;;;;;;9.18;5.07;;;;;;;;;;5095282;28;20082;-65
2023/06/13 08:31:23;;;;;;;6.82;4.43;;;;;;;;;;5076589;28;20020;-67
2023/06/13 08:33:52;;;;;;;7.20;4.97;;;;;;;;;;5104157;28;20121;-65
2023/06/13 08:36:17;;;;;;;8.30;5.22;;;;;;;;;;5086227;28;20091;-65
2023/06/13 08:38:43;;;;;;;8.55;4.25;;;;;;;;;;5064213;28;20038;-66
2023/06/13 08:41:09;;;;;;;9.55;5.35;;;;;;;;;;5058185;28;20844;-66
2023/06/13 08:43:34;;;;;;;11.18;5.35;;;;;;;;;;5069321;28;20924;-64
2023/06/13 08:46:00;;;;;;;16.25;5.50;;;;;;;;;;5060969;28;20019;-66
2023/06/13 08:48:25;;;;;;;9.32;5.03;;;;;;;;;;5091842;28;20693;-65
2023/06/13 08:50:51;;;;;;;10.20;4.77;;;;;;;;;;5102529;28;20478;-66
2023/06/13 08:53:17;;;;;;;11.75;4.63;;;;;;;;;;5107043;28;20283;-65
2023/06/13 08:55:43;;;;;;;12.85;5.57;;;;;;;;;;5112294;28;20036;-66
2023/06/13 08:58:10;;;;;;;9.65;4.32;;;;;;;;;;5106604;28;20439;-65
2023/06/13 09:00:35;;;;;;;9.07;5.25;;;;;;;;;;5106434;28;20030;-67
2023/06/13 09:03:03;;;;;;;13.23;5.03;;;;;;;;;;5102859;28;20103;-66
2023/06/13 09:05:29;;;;;;;9.02;5.03;;;;;;;;;;5105987;28;20042;-67
2023/06/13 09:07:56;;;;;;;8.60;5.40;;;;;;;;;;5092587;28;20020;-65
2023/06/13 09:10:21;;;;;;;6.82;4.28;;;;;;;;;;5092593;28;20049;-66
2023/06/13 09:12:49;;;;;;;7.22;4.63;;;;;;;;;;5095671;28;20020;-65
2023/06/13 09:15:15;;;;;;;15.98;4.70;;;;;;;;;;5102157;28;20024;-65
2023/06/13 09:17:40;;;;;;;7.43;4.82;;;;;;;;;;5107332;28;20069;-66
2023/06/13 09:20:06;;;;;;;5.97;4.63;;;;;;;;;;5097103;28;20227;-66
2023/06/13 09:22:35;;;;;;;7.40;4.13;;;;;;;;;;5101227;28;20063;-66
2023/06/13 09:25:00;;;;;;;8.05;4.25;;;;;;;;;;5095423;28;20099;-65
2023/06/13 09:27:28;;;;;;;5.80;4.53;;;;;;;;;;5091965;28;20107;-67
2023/06/13 09:29:54;;;;;;;9.15;4.57;;;;;;;;;;5095261;28;20467;-65
2023/06/13 09:32:20;;;;;;;7.97;4.72;;;;;;;;;;5110685;28;20102;-66
2023/06/13 09:34:48;;;;;;;9.38;4.40;;;;;;;;;;5109095;28;20027;-64
2023/06/13 09:37:14;;;;;;;5.55;4.43;;;;;;;;;;5101864;28;20378;-66
2023/06/13 09:39:46;;;;;;;6.32;5.00;;;;;;;;;;5092327;28;20024;-65
2023/06/13 09:42:12;;;;;;;7.65;4.43;;;;;;;;;;5110096;28;20024;-65
2023/06/13 09:44:37;;;;;;;6.93;4.60;;;;;;;;;;5100621;28;20170;-65
2023/06/13 09:47:02;;;;;;;10.33;4.40;;;;;;;;;;5102607;28;20034;-66
2023/06/13 09:49:30;;;;;;;9.15;4.95;;;;;;;;;;5105654;28;20289;-66
2023/06/13 09:52:01;;;;;;;7.88;4.38;;;;;;;;;;5101085;28;20453;-67
2023/06/13 09:54:29;;;;;;;6.93;4.75;;;;;;;;;;5096566;28;20024;-64
2023/06/13 09:56:57;;;;;;;12.95;5.10;;;;;;;;;;5096248;28;20015;-66
2023/06/13 09:59:23;;;;;;;9.82;5.00;;;;;;;;;;5103413;28;20035;-66
2023/06/13 10:01:57;;;;;;;9.77;5.40;;;;;;;;;;5093309;28;20036;-66
2023/06/13 10:04:25;;;;;;;8.77;4.40;;;;;;;;;;5078672;28;20039;-66
2023/06/13 10:06:50;;;;;;;12.45;4.63;;;;;;;;;;5070190;28;20036;-65
2023/06/13 10:09:16;;;;;;;13.07;4.33;;;;;;;;;;5111276;28;20034;-66
2023/06/13 10:11:43;;;;;;;6.83;4.60;;;;;;;;;;5110616;28;20054;-66
2023/06/13 10:14:21;;;;;;;9.93;5.47;;;;;;;;;;5108604;28;20273;-66
2023/06/13 10:16:49;;;;;;;7.90;5.15;;;;;;;;;;5109104;28;20039;-64
2023/06/13 10:19:17;;;;;;;9.70;4.93;;;;;;;;;;5110330;28;20092;-65
2023/06/13 10:21:43;;;;;;;8.35;5.20;;;;;;;;;;5110201;28;20031;-65
2023/06/13 10:24:09;;;;;;;8.57;4.53;;;;;;;;;;5110921;28;20519;-65
2023/06/13 10:26:37;;;;;;;8.52;4.68;;;;;;;;;;5109555;28;20019;-66
2023/06/13 10:29:06;;;;;;;11.45;5.30;;;;;;;;;;5109875;28;20039;-66
2023/06/13 10:31:31;;;;;;;9.68;4.78;;;;;;;;;;5103602;28;20016;-66
2023/06/13 10:33:57;;;;;;;9.23;4.63;;;;;;;;;;5107671;28;20020;-65
2023/06/13 10:36:24;;;;;;;7.60;4.30;;;;;;;;;;5105508;28;20356;-67
2023/06/13 10:38:59;;;;;;;7.53;4.55;;;;;;;;;;5110489;28;20024;-65
2023/06/13 10:41:39;;;;;;;6.35;4.10;;;;;;;;;;5107627;28;20024;-66
2023/06/13 10:44:08;;;;;;;7.57;4.53;;;;;;;;;;5104266;28;20038;-64
2023/06/13 10:46:34;;;;;;;9.95;4.47;;;;;;;;;;5108562;28;20024;-65
2023/06/13 10:49:02;;;;;;;7.03;4.65;;;;;;;;;;5103818;28;20028;-67
2023/06/13 10:51:29;;;;;;;8.45;4.72;;;;;;;;;;5091469;28;20020;-66
2023/06/13 10:54:14;;;;;;;11.60;5.22;;;;;;;;;;5092891;28;20071;-63
2023/06/13 10:56:42;;;;;;;9.57;4.68;;;;;;;;;;5095890;28;20500;-65
2023/06/13 10:59:11;;;;;;;6.80;4.38;;;;;;;;;;5111001;28;20024;-65
2023/06/13 11:01:37;;;;;;;7.00;4.97;;;;;;;;;;5104754;28;20027;-65
2023/06/13 11:04:13;;;;;;;8.38;4.22;;;;;;;;;;5099094;28;20023;-65
2023/06/13 11:06:40;;;;;;;10.90;5.43;;;;;;;;;;5102639;28;20416;-64
2023/06/13 11:09:08;;;;;;;4.80;3.83;;;;;;;;;;5100447;28;20019;-65
2023/06/13 11:11:53;;;;;;;5.65;3.95;;;;;;;;;;5109321;28;20083;-65
2023/06/13 11:14:23;;;;;;;6.10;3.83;;;;;;;;;;5102020;28;20093;-65
2023/06/13 11:16:48;;;;;;;5.50;4.38;;;;;;;;;;5106208;28;20386;-65
2023/06/13 11:19:17;;;;;;;6.97;3.83;;;;;;;;;;5110318;28;20023;-64
2023/06/13 11:21:44;;;;;;;6.15;4.03;;;;;;;;;;5101411;28;20459;-65
2023/06/13 11:24:11;;;;;;;21.00;4.53;;;;;;;;;;5102974;28;20073;-65
2023/06/13 11:26:36;;;;;;;8.23;4.30;;;;;;;;;;5097347;28;20035;-65
2023/06/13 11:29:03;;;;;;;10.77;4.40;;;;;;;;;;5102386;28;20024;-66
2023/06/13 11:31:28;;;;;;;6.55;4.53;;;;;;;;;;5111279;28;20143;-65
2023/06/13 11:33:56;;;;;;;6.55;4.47;;;;;;;;;;5097849;28;20640;-65
2023/06/13 11:36:24;;;;;;;8.48;4.45;;;;;;;;;;5096218;28;20023;-65
2023/06/13 11:39:10;;;;;;;9.10;5.05;;;;;;;;;;5098136;28;20080;-63
2023/06/13 11:41:36;;;;;;;8.13;4.60;;;;;;;;;;5104054;28;20040;-64
2023/06/13 11:44:01;;;;;;;8.65;5.00;;;;;;;;;;5105948;28;20501;-63
2023/06/13 11:46:26;;;;;;;6.78;5.18;;;;;;;;;;5110054;28;20032;-65
2023/06/13 11:48:58;;;;;;;9.70;5.28;;;;;;;;;;5108224;28;20023;-64
2023/06/13 11:51:26;;;;;;;7.28;5.20;;;;;;;;;;5113122;28;20020;-65
2023/06/13 11:53:56;;;;;;;8.23;4.88;;;;;;;;;;5107207;28;20028;-63
2023/06/13 11:56:23;;;;;;;7.38;4.25;;;;;;;;;;5109595;28;20032;-64
2023/06/13 11:58:49;;;;;;;5.35;4.55;;;;;;;;;;5109174;28;20016;-65
2023/06/13 12:01:16;;;;;;;11.95;4.68;;;;;;;;;;5106132;28;20030;-65
2023/06/13 12:03:42;;;;;;;10.55;5.53;;;;;;;;;;5103956;28;20042;-63
2023/06/13 12:06:07;;;;;;;13.05;5.53;;;;;;;;;;5086456;28;20159;-64
2023/06/13 12:08:36;;;;;;;8.75;5.15;;;;;;;;;;5065778;28;20024;-65
2023/06/13 12:11:05;;;;;;;6.53;4.90;;;;;;;;;;5068895;28;20092;-65
2023/06/13 12:13:31;;;;;;;8.80;5.47;;;;;;;;;;5067828;28;20836;-65
2023/06/13 12:15:57;;;;;;;7.40;5.10;;;;;;;;;;5081991;28;20111;-65
2023/06/13 12:18:22;;;;;;;8.47;4.23;;;;;;;;;;5103780;28;20177;-65
2023/06/13 12:20:49;;;;;;;5.13;4.30;;;;;;;;;;5099095;28;20024;-65
2023/06/13 12:23:15;;;;;;;12.05;5.00;;;;;;;;;;5111155;28;20277;-65
2023/06/13 12:25:40;;;;;;;9.85;4.70;;;;;;;;;;5111724;28;20138;-65
2023/06/13 12:28:07;;;;;;;9.13;4.78;;;;;;;;;;5111644;28;20091;-65
2023/06/13 12:30:42;;;;;;;9.07;5.25;;;;;;;;;;5112161;28;20027;-65
2023/06/13 12:33:08;;;;;;;11.48;5.20;;;;;;;;;;5106085;28;20420;-65
2023/06/13 12:35:33;;;;;;;11.15;4.80;;;;;;;;;;5105883;28;20019;-65
2023/06/13 12:38:01;;;;;;;12.63;4.93;;;;;;;;;;5097281;28;20024;-64
2023/06/13 12:40:30;;;;;;;12.88;5.60;;;;;;;;;;5102709;28;20281;-65
2023/06/13 12:42:56;;;;;;;6.05;4.30;;;;;;;;;;5096602;28;20028;-65
2023/06/13 12:45:22;;;;;;;6.90;4.80;;;;;;;;;;5070394;28;20121;-66
2023/06/13 12:47:47;;;;;;;8.05;4.97;;;;;;;;;;5101990;28;20462;-66
2023/06/13 12:50:12;;;;;;;18.75;5.22;;;;;;;;;;5103769;28;20032;-64
2023/06/13 12:52:38;;;;;;;6.68;5.00;;;;;;;;;;5103970;28;20120;-65
2023/06/13 12:55:04;;;;;;;11.15;4.80;;;;;;;;;;5102243;28;20027;-63
2023/06/13 12:57:29;;;;;;;9.13;5.75;;;;;;;;;;5096936;28;20024;-65
2023/06/13 12:59:56;;;;;;;9.38;5.25;;;;;;;;;;5099475;28;20027;-64
2023/06/13 13:02:26;;;;;;;7.28;5.35;;;;;;;;;;5105495;28;20111;-66
2023/06/13 13:05:02;;;;;;;9.68;4.50;;;;;;;;;;5112159;28;20051;-65
2023/06/13 13:07:30;;;;;;;7.93;4.88;;;;;;;;;;5112335;28;20037;-66
2023/06/13 13:09:56;;;;;;;6.72;4.80;;;;;;;;;;5112393;28;20028;-65
2023/06/13 13:12:22;;;;;;;8.63;5.07;;;;;;;;;;5107236;28;20032;-66
2023/06/13 13:14:47;;;;;;;7.78;4.97;;;;;;;;;;5104318;28;20036;-65
2023/06/13 13:17:13;;;;;;;6.53;4.88;;;;;;;;;;5111224;28;20043;-65
2023/06/13 13:19:39;;;;;;;6.07;4.55;;;;;;;;;;5104229;28;20118;-65
2023/06/13 13:22:04;;;;;;;7.53;5.35;;;;;;;;;;5112031;28;20024;-65
2023/06/13 13:24:29;;;;;;;8.52;4.97;;;;;;;;;;5105577;28;20546;-64
2023/06/13 13:26:55;;;;;;;11.37;5.30;;;;;;;;;;5102278;28;20028;-65
2023/06/13 13:29:20;;;;;;;9.07;5.47;;;;;;;;;;5097119;28;20040;-65
2023/06/13 13:31:45;;;;;;;12.30;5.70;;;;;;;;;;5109330;28;20674;-64
2023/06/13 13:34:11;;;;;;;9.48;4.90;;;;;;;;;;5097711;28;20420;-66
2023/06/13 13:36:37;;;;;;;10.93;4.55;;;;;;;;;;5108503;28;20642;-64
2023/06/13 13:39:02;;;;;;;6.63;4.63;;;;;;;;;;5097672;28;20023;-65
2023/06/13 13:41:34;;;;;;;8.00;5.40;;;;;;;;;;5103261;28;20027;-63
2023/06/13 13:44:02;;;;;;;7.40;4.82;;;;;;;;;;5098220;28;20028;-64
2023/06/13 13:46:31;;;;;;;8.73;5.18;;;;;;;;;;5100054;28;20084;-64
2023/06/13 13:48:56;;;;;;;12.25;4.68;;;;;;;;;;5097905;28;20066;-65
2023/06/13 13:51:26;;;;;;;10.07;4.87;;;;;;;;;;5099906;28;20470;-64
2023/06/13 13:53:51;;;;;;;7.15;4.72;;;;;;;;;;5099556;28;20125;-64
2023/06/13 13:56:16;;;;;;;9.30;5.60;;;;;;;;;;5109443;28;20020;-64
2023/06/13 13:58:42;;;;;;;8.90;5.38;;;;;;;;;;5100880;28;20031;-64
2023/06/13 14:01:07;;;;;;;7.03;5.03;;;;;;;;;;5105896;28;20015;-64
2023/06/13 14:03:32;;;;;;;7.90;4.37;;;;;;;;;;5101554;28;20273;-65
2023/06/13 14:05:57;;;;;;;6.30;4.57;;;;;;;;;;5110553;28;20490;-63
2023/06/13 14:08:23;;;;;;;9.33;4.33;;;;;;;;;;5102279;28;20292;-65
2023/06/13 14:10:48;;;;;;;7.33;4.90;;;;;;;;;;5102718;28;20027;-64
2023/06/13 14:13:14;;;;;;;8.73;5.17;;;;;;;;;;5093748;28;20270;-64
2023/06/13 14:15:39;;;;;;;6.47;4.65;;;;;;;;;;5109939;28;20281;-63
2023/06/13 14:18:04;;;;;;;10.27;5.25;;;;;;;;;;5097934;28;20023;-65
2023/06/13 14:20:30;;;;;;;12.00;4.63;;;;;;;;;;5097388;28;20418;-65
2023/06/13 14:22:55;;;;;;;6.38;5.28;;;;;;;;;;5109597;28;20024;-65
2023/06/13 14:25:21;;;;;;;5.65;4.65;;;;;;;;;;5103135;28;20071;-65
2023/06/13 14:27:46;;;;;;;6.80;4.40;;;;;;;;;;5105275;28;20027;-66
2023/06/13 14:30:11;;;;;;;12.40;5.30;;;;;;;;;;5101130;28;20020;-64
2023/06/13 14:32:36;;;;;;;6.68;4.90;;;;;;;;;;5099924;28;20481;-65
2023/06/13 14:35:02;;;;;;;7.40;4.70;;;;;;;;;;5104233;28;20024;-64
2023/06/13 14:37:28;;;;;;;9.18;5.03;;;;;;;;;;5106360;28;20485;-64